Time;durP1;ratioP1;P1;durP2;ratioP2;P2;SDS_P1;SDS_P2;PMS_P1;PMS_P2;Temp;Humidity;BMP_temperature;BMP_pressure;BME280_temperature;BME280_humidity;BME280_pressure;Samples;Min_cycle;Max_cycle;Signal;HPM_P1;HPM_P2
2022/01/25 00:15:04;;;;;;;;;;;;;;;3.33;90.61914;103642.5;;;;-80
2022/01/25 00:24:13;;;;;;;;;;;;;;;3.32;90.61523;103646.9;;;;-80
2022/01/25 00:25:59;;;;;;;;;;;;;;;3.31;90.68945;103661.3;;;;-79
2022/01/25 00:30:31;;;;;;;34.2;14.8;;;;;;;;;;;;;-80
2022/01/25 00:30:59;;;;;;;;;;;;;;;3.3;90.68945;103662;;;;-80
2022/01/25 00:35:36;;;;;;;;;;;;;;;3.31;90.65625;103658.9;;;;-80
2022/01/25 00:40:36;;;;;;;;;;;;;;;3.29;90.5332;103647.8;;;;-79
2022/01/25 00:45:36;;;;;;;;;;;;;;;3.3;90.63281;103637.5;;;;-77
2022/01/25 00:50:40;;;;;;;;;;;;;;;3.29;90.65039;103644.2;;;;-77
2022/01/25 00:55:37;;;;;;;;;;;;;;;3.27;90.64844;103644.4;;;;-77
2022/01/25 01:00:19;;;;;;;39.1;15.1;;;;;;;;;;;;;-78
2022/01/25 01:00:36;;;;;;;;;;;;;;;3.26;90.63574;103641.8;;;;-77
2022/01/25 01:05:38;;;;;;;;;;;;;;;3.27;90.57129;103638.4;;;;-77
2022/01/25 01:10:37;;;;;;;;;;;;;;;3.26;90.58008;103628.7;;;;-77
2022/01/25 01:15:52;;;;;;;;;;;;;;;3.25;90.53613;103621.6;;;;-77
2022/01/25 01:30:30;;;;;;;34.8;14.9;;;;;;;;;;;;;-80
2022/01/25 01:30:49;;;;;;;;;;;;;;;3.24;90.57617;103614.9;;;;-81
2022/01/25 01:36:14;;;;;;;;;;;;;;;3.24;90.59961;103608.8;;;;-80
2022/01/25 01:40:54;;;;;;;;;;;;;;;3.23;90.51074;103612.2;;;;-80
2022/01/25 01:45:49;;;;;;;;;;;;;;;3.23;90.51953;103613.5;;;;-79
2022/01/25 01:50:38;;;;;;;;;;;;;;;3.21;90.57031;103619.1;;;;-79
2022/01/25 01:55:38;;;;;;;;;;;;;;;3.21;90.49414;103623.2;;;;-79
2022/01/25 02:00:18;;;;;;;36.9;15;;;;;;;;;;;;;-79
2022/01/25 02:00:39;;;;;;;;;;;;;;;3.21;90.50488;103617.6;;;;-79
2022/01/25 02:05:37;;;;;;;;;;;;;;;3.2;90.55762;103609.2;;;;-79
2022/01/25 02:10:36;;;;;;;;;;;;;;;3.2;90.5791;103615.9;;;;-80
2022/01/25 02:15:38;;;;;;;;;;;;;;;3.18;90.62988;103616.6;;;;-80
2022/01/25 02:25:36;;;;;;;;;;;;;;;3.17;90.59473;103610.3;;;;-80
2022/01/25 02:30:18;;;;;;;37.8;14.9;;;;;;;;;;;;;-80
2022/01/25 02:30:36;;;;;;;;;;;;;;;3.17;90.63867;103602.5;;;;-80
2022/01/25 02:35:37;;;;;;;;;;;;;;;3.15;90.53711;103600.9;;;;-81
2022/01/25 02:40:36;;;;;;;;;;;;;;;3.17;90.55176;103599.9;;;;-80
2022/01/25 02:45:37;;;;;;;;;;;;;;;3.15;90.19043;103591;;;;-81
2022/01/25 02:50:36;;;;;;;;;;;;;;;3.16;90.46289;103593.9;;;;-81
2022/01/25 02:55:37;;;;;;;;;;;;;;;3.14;90.30762;103593.4;;;;-81
2022/01/25 03:00:18;;;;;;;33.6;14;;;;;;;;;;;;;-80
2022/01/25 03:00:36;;;;;;;;;;;;;;;3.14;90.49023;103588.8;;;;-80
2022/01/25 03:05:37;;;;;;;;;;;;;;;3.14;90.5459;103584.1;;;;-81
2022/01/25 03:10:44;;;;;;;;;;;;;;;3.12;90.54199;103588.7;;;;-80
2022/01/25 03:15:56;;;;;;;;;;;;;;;3.12;90.4668;103587.1;;;;-81
2022/01/25 03:20:49;;;;;;;;;;;;;;;3.12;90.50977;103585.3;;;;-80
2022/01/25 03:25:36;;;;;;;;;;;;;;;3.12;90.37988;103582.2;;;;-80
2022/01/25 03:30:16;;;;;;;32.9;13.2;;;;;;;;;;;;;-79
2022/01/25 03:30:36;;;;;;;;;;;;;;;3.11;90.50586;103578.2;;;;-80
2022/01/25 03:35:36;;;;;;;;;;;;;;;3.1;90.58203;103575;;;;-80
2022/01/25 03:40:37;;;;;;;;;;;;;;;3.1;90.45215;103578.7;;;;-79
2022/01/25 03:45:39;;;;;;;;;;;;;;;3.1;90.42773;103581.8;;;;-79
2022/01/25 03:50:36;;;;;;;;;;;;;;;3.09;90.53418;103579.6;;;;-80
2022/01/25 03:55:37;;;;;;;;;;;;;;;3.09;90.59961;103581.5;;;;-80
2022/01/25 04:00:16;;;;;;;34.8;13.7;;;;;;;;;;;;;-80
2022/01/25 04:00:38;;;;;;;;;;;;;;;3.07;90.59766;103580;;;;-80
2022/01/25 04:05:48;;;;;;;;;;;;;;;3.07;90.58496;103593.9;;;;-80
2022/01/25 04:10:36;;;;;;;;;;;;;;;3.07;90.53027;103586.7;;;;-79
2022/01/25 04:15:39;;;;;;;;;;;;;;;3.06;90.54004;103584.3;;;;-79
2022/01/25 04:20:36;;;;;;;;;;;;;;;3.05;90.14941;103574.9;;;;-79
2022/01/25 04:25:36;;;;;;;;;;;;;;;3.04;90.54688;103572.5;;;;-79
2022/01/25 04:30:15;;;;;;;36;14.1;;;;;;;;;;;;;-81
2022/01/25 04:30:36;;;;;;;;;;;;;;;3.04;90.56641;103570.1;;;;-79
2022/01/25 04:35:57;;;;;;;;;;;;;;;3.03;90.40332;103566.7;;;;-81
2022/01/25 04:50:57;;;;;;;;;;;;;;;3.02;90.34766;103548.7;;;;-80
2022/01/25 04:55:42;;;;;;;;;;;;;;;3.02;90.47559;103551.2;;;;-80
2022/01/25 05:00:19;;;;;;;36.1;13.4;;;;;;;;;;;;;-79
2022/01/25 05:00:37;;;;;;;;;;;;;;;3.01;90.5498;103553.8;;;;-79
2022/01/25 05:05:41;;;;;;;;;;;;;;;3;90.53711;103556.4;;;;-80
2022/01/25 05:10:47;;;;;;;;;;;;;;;2.98;90.27344;103549.1;;;;-79
2022/01/25 05:16:02;;;;;;;;;;;;;;;2.98;90.18652;103552.6;;;;-80
2022/01/25 05:25:36;;;;;;;;;;;;;;;2.97;90.48828;103549.5;;;;-79
2022/01/25 05:30:14;;;;;;;33.6;13.5;;;;;;;;;;;;;-80
2022/01/25 05:30:36;;;;;;;;;;;;;;;2.96;90.47559;103553.5;;;;-80
2022/01/25 05:35:36;;;;;;;;;;;;;;;2.94;90.49316;103558.7;;;;-80
2022/01/25 05:40:46;;;;;;;;;;;;;;;2.94;90.5127;103557.3;;;;-80
2022/01/25 05:45:57;;;;;;;;;;;;;;;2.93;90.5127;103567.3;;;;-80
2022/01/25 05:50:37;;;;;;;;;;;;;;;2.95;90.48242;103568.6;;;;-80
2022/01/25 05:55:36;;;;;;;;;;;;;;;2.93;90.48047;103566.4;;;;-79
2022/01/25 06:00:15;;;;;;;33.2;13.5;;;;;;;;;;;;;-80
2022/01/25 06:00:36;;;;;;;;;;;;;;;2.94;90.41504;103575.8;;;;-80
2022/01/25 06:05:36;;;;;;;;;;;;;;;2.93;90.4043;103568.7;;;;-80
2022/01/25 06:10:37;;;;;;;;;;;;;;;2.91;90.49609;103568.1;;;;-80
2022/01/25 06:15:36;;;;;;;;;;;;;;;2.91;90.25781;103561.7;;;;-80
2022/01/25 06:20:36;;;;;;;;;;;;;;;2.89;90.21094;103563.6;;;;-79
2022/01/25 06:25:38;;;;;;;;;;;;;;;2.89;90.00488;103575.7;;;;-79
2022/01/25 06:30:13;;;;;;;36.6;14.2;;;;;;;;;;;;;-80
2022/01/25 06:30:36;;;;;;;;;;;;;;;2.89;90.32129;103567.1;;;;-80
2022/01/25 06:35:36;;;;;;;;;;;;;;;2.89;90.22363;103569.9;;;;-80
2022/01/25 06:45:39;;;;;;;;;;;;;;;2.87;90.1416;103579.8;;;;-79
2022/01/25 06:50:33;;;;;;;;;;;;;;;2.87;90.2627;103576.9;;;;-80
2022/01/25 06:55:33;;;;;;;;;;;;;;;2.86;90.20508;103576.4;;;;-80
2022/01/25 07:00:12;;;;;;;33.7;14.1;;;;;;;;;;;;;-80
2022/01/25 07:00:33;;;;;;;;;;;;;;;2.87;90.2373;103580.3;;;;-80
2022/01/25 07:05:33;;;;;;;;;;;;;;;2.87;90.27051;103581.1;;;;-79
2022/01/25 07:10:33;;;;;;;;;;;;;;;2.85;90.09668;103588;;;;-80
2022/01/25 07:15:33;;;;;;;;;;;;;;;2.85;89.91992;103587.5;;;;-79
2022/01/25 07:20:33;;;;;;;;;;;;;;;2.84;90.03906;103582.5;;;;-81
2022/01/25 07:25:34;;;;;;;;;;;;;;;2.83;89.98242;103583;;;;-79
2022/01/25 07:30:11;;;;;;;37.3;13.4;;;;;;;;;;;;;-79
2022/01/25 07:30:33;;;;;;;;;;;;;;;2.83;89.8418;103583.9;;;;-78
2022/01/25 07:35:33;;;;;;;;;;;;;;;2.83;89.9375;103587.6;;;;-80
2022/01/25 07:40:35;;;;;;;;;;;;;;;2.82;90.02441;103575.5;;;;-80
2022/01/25 07:45:35;;;;;;;;;;;;;;;2.83;89.96973;103574.8;;;;-80
2022/01/25 07:50:33;;;;;;;;;;;;;;;2.81;89.77051;103575.4;;;;-80
2022/01/25 07:55:33;;;;;;;;;;;;;;;2.82;90.07617;103575.5;;;;-79
2022/01/25 08:00:10;;;;;;;38.2;14.3;;;;;;;;;;;;;-79
2022/01/25 08:00:33;;;;;;;;;;;;;;;2.82;89.98047;103581.7;;;;-80
2022/01/25 08:05:33;;;;;;;;;;;;;;;2.82;90.07813;103585.2;;;;-79
2022/01/25 08:10:33;;;;;;;;;;;;;;;2.83;90.13477;103587.2;;;;-80
2022/01/25 08:15:33;;;;;;;;;;;;;;;2.84;90.09082;103582.1;;;;-78
2022/01/25 08:20:33;;;;;;;;;;;;;;;2.83;89.90625;103576.7;;;;-79
2022/01/25 08:25:34;;;;;;;;;;;;;;;2.83;89.38477;103579.3;;;;-78
2022/01/25 08:30:11;;;;;;;33.8;13.8;;;;;;;;;;;;;-78
2022/01/25 08:30:33;;;;;;;;;;;;;;;2.84;89.61621;103579.7;;;;-78
2022/01/25 08:35:33;;;;;;;;;;;;;;;2.84;89.54004;103576.1;;;;-79
2022/01/25 08:40:34;;;;;;;;;;;;;;;2.86;89.57617;103570.7;;;;-80
2022/01/25 08:45:33;;;;;;;;;;;;;;;2.87;89.62012;103575.9;;;;-79
2022/01/25 08:50:33;;;;;;;;;;;;;;;2.87;89.72852;103579.5;;;;-80
2022/01/25 08:55:33;;;;;;;;;;;;;;;2.89;89.59277;103578.6;;;;-80
2022/01/25 09:00:09;;;;;;;35.9;14;;;;;;;;;;;;;-79
2022/01/25 09:00:33;;;;;;;;;;;;;;;2.91;89.83496;103578.5;;;;-81
2022/01/25 09:05:33;;;;;;;;;;;;;;;2.93;89.78711;103581.3;;;;-81
2022/01/25 09:10:33;;;;;;;;;;;;;;;2.94;89.70215;103583.5;;;;-80
2022/01/25 09:15:33;;;;;;;;;;;;;;;2.96;89.45605;103592.4;;;;-80
2022/01/25 09:20:33;;;;;;;;;;;;;;;2.98;89.86133;103597.4;;;;-80
2022/01/25 09:25:33;;;;;;;;;;;;;;;3;89.81055;103606.3;;;;-81
2022/01/25 09:30:08;;;;;;;34.2;13.6;;;;;;;;;;;;;-79
2022/01/25 09:30:33;;;;;;;;;;;;;;;3.02;89.77344;103608.2;;;;-78
2022/01/25 09:35:33;;;;;;;;;;;;;;;3.03;89.67773;103608.4;;;;-80
2022/01/25 09:40:33;;;;;;;;;;;;;;;3.06;89.45605;103607.8;;;;-81
2022/01/25 09:45:34;;;;;;;;;;;;;;;3.07;89.56738;103612;;;;-80
2022/01/25 09:50:41;;;;;;;;;;;;;;;3.1;89.44141;103615.8;;;;-77
2022/01/25 09:55:34;;;;;;;;;;;;;;;3.12;89.58594;103628.6;;;;-79
2022/01/25 10:00:07;;;;;;;40;13.7;;;;;;;;;;;;;-83
2022/01/25 10:00:34;;;;;;;;;;;;;;;3.13;89.19922;103632.1;;;;-80
2022/01/25 10:05:36;;;;;;;;;;;;;;;3.16;89.54102;103637.3;;;;-81
2022/01/25 10:10:34;;;;;;;;;;;;;;;3.18;89.58887;103648.2;;;;-80
2022/01/25 10:15:33;;;;;;;;;;;;;;;3.2;89.52734;103648.9;;;;-80
2022/01/25 10:20:36;;;;;;;;;;;;;;;3.22;89.22949;103649.8;;;;-82
2022/01/25 10:25:41;;;;;;;;;;;;;;;3.23;89.06836;103649.5;;;;-80
2022/01/25 10:30:14;;;;;;;42.1;14.1;;;;;;;;;;;;;-81
2022/01/25 10:30:33;;;;;;;;;;;;;;;3.25;89.02832;103654;;;;-82
2022/01/25 10:35:33;;;;;;;;;;;;;;;3.28;88.74121;103652.7;;;;-73
2022/01/25 10:40:42;;;;;;;;;;;;;;;3.3;88.59473;103654.1;;;;-82
2022/01/25 10:45:33;;;;;;;;;;;;;;;3.32;88.77246;103660.3;;;;-80
2022/01/25 10:50:35;;;;;;;;;;;;;;;3.34;88.3291;103658.6;;;;-80
2022/01/25 10:55:39;;;;;;;;;;;;;;;3.37;88.7168;103652.1;;;;-80
2022/01/25 11:00:09;;;;;;;42.1;13.2;;;;;;;;;;;;;-78
2022/01/25 11:00:37;;;;;;;;;;;;;;;3.39;88.9248;103639.7;;;;-79
2022/01/25 11:05:34;;;;;;;;;;;;;;;3.42;88.50879;103637.3;;;;-79
2022/01/25 11:10:38;;;;;;;;;;;;;;;3.45;88.39746;103637.7;;;;-78
2022/01/25 11:15:33;;;;;;;;;;;;;;;3.48;88.34863;103637.1;;;;-78
2022/01/25 11:20:33;;;;;;;;;;;;;;;3.5;88.4082;103630.4;;;;-81
2022/01/25 11:25:35;;;;;;;;;;;;;;;3.53;88.22949;103631.7;;;;-84
2022/01/25 11:30:10;;;;;;;76.8;17.1;;;;;;;;;;;;;-83
2022/01/25 11:30:33;;;;;;;;;;;;;;;3.56;88.33105;103615.6;;;;-83
2022/01/25 11:35:36;;;;;;;;;;;;;;;3.59;88.24023;103610.2;;;;-83
2022/01/25 11:40:34;;;;;;;;;;;;;;;3.62;88.3457;103603.3;;;;-83
2022/01/25 11:45:33;;;;;;;;;;;;;;;3.64;88.03418;103605.9;;;;-83
2022/01/25 11:50:34;;;;;;;;;;;;;;;3.66;87.96191;103607.1;;;;-83
2022/01/25 11:55:34;;;;;;;;;;;;;;;3.7;88.25195;103597;;;;-80
